Glendale, Ohio
Current Conditions -  °F | °C
As of 3:53 AM on Friday 19 Dec 2014 (Local Time) from KHAO Reporting Station
Overcast Overcast  
Wind Chill: 22°   Ceiling: 1900
Heat Index: 28°   Visibility: 8mi
Dew Point: 23°   Wind: 6mph
Humidity: 81%   Direction: 310°NW
Pressure: 30.26"   Gusts: NA
Location:  39.286°N, 84.4668°W
Report Text: KHAO 190853Z AUTO 31005KT 8SM OVC019 M02/M05 A3026 RMK AO2 SLP256 60000 T10221050 53001
Loading
Personal Weather Stations






























Interactive Weather Map New forecast layout! Learn more

10-Day Weather Forecast

Advertisements
Track Severe Weather on mobile